Crossville, TN (38572)

8:45 PM CDT on August 29, 2016 (GMT -0500)
Brookstone Dr. | | Change Station

Elev 1841 ft 35.96 °N, 85.00 °W | Updated 4 seconds ago

Clear
Clear
76.0 °F
Feels Like 77 °F
N
0.0
Wind Variable Wind from NNE

Today
High -- | Low -- °F
--% Chance of Precip.
Yesterday
High -- | Low -- °F
Precip. -- in
Pressure 30.10 in
Visibility 10.0 miles
Clouds Clear
Heat Index 77 °F
Dew Point 70 °F
Humidity 83%
Rainfall 0.00 in
Snow Depth Not available.
6:09 AM 7:10 PM
Waning Crescent, 6% visible
METAR KCSV 300053Z AUTO 07003KT 10SM CLR 26/21 A3016 RMK AO2 SLP191 T02560206
Pressure 30.10 in
Visibility 10.0 miles
Clouds Clear
Heat Index 77 °F
Dew Point 70 °F
Humidity 83%
Rainfall 0.00 in
Snow Depth Not available.
6:09 AM 7:10 PM
Waning Crescent, 6% visible
METAR KCSV 300053Z AUTO 07003KT 10SM CLR 26/21 A3016 RMK AO2 SLP191 T02560206

10-Day Weather Forecast

Almanac

Astronomy

Aug. 29, 2016 Rise Set
Actual Time
Civil Twilight
Nautical Twilight
Astronomical Twilight
Moon
Length of Visible Light
Length of Day
Tomorrow will be .
, % of the Moon is Illuminated

Today's Extremes

State Highs State Lows

Community

WunderPhotos

Upload Photos

1,935,715 photos uploaded!

WunderBlog® & News

Nearby

Air Quality

  Air Quality AQ Index Pollutant
Not available.

Snow Depth

Station Depth Elevation

Earthquake Activity

City Distance Mag. Time & Date
Minimum magnitude displayed is 2.5.

Coastal Water Temperatures

Place Temperature

Stations

Nearby Weather Stations

Station Location Temp. Windchill Dew Point Humidity Wind Precip. Elev Updated Type
                   

Watches & Warnings

There are currently no watches in effect.